sensor_id;sensor_type;location;lat;lon;timestamp;P1;durP1;ratioP1;P2;durP2;ratioP2
13805;SDS011;6974;53.606;9.872;2023-04-03T00:01:43;5.47;;;2.87;;
13805;SDS011;6974;53.606;9.872;2023-04-03T00:04:10;8.23;;;2.90;;
13805;SDS011;6974;53.606;9.872;2023-04-03T00:06:37;7.33;;;2.83;;
13805;SDS011;6974;53.606;9.872;2023-04-03T00:09:05;4.43;;;2.70;;
13805;SDS011;6974;53.606;9.872;2023-04-03T00:11:32;4.73;;;2.60;;
13805;SDS011;6974;53.606;9.872;2023-04-03T00:13:59;5.50;;;2.77;;
13805;SDS011;6974;53.606;9.872;2023-04-03T00:16:26;6.50;;;2.80;;
13805;SDS011;6974;53.606;9.872;2023-04-03T00:18:55;5.13;;;2.90;;
13805;SDS011;6974;53.606;9.872;2023-04-03T00:21:22;9.20;;;3.00;;
13805;SDS011;6974;53.606;9.872;2023-04-03T00:23:49;5.17;;;2.43;;
13805;SDS011;6974;53.606;9.872;2023-04-03T00:26:16;7.00;;;2.87;;
13805;SDS011;6974;53.606;9.872;2023-04-03T00:28:43;7.00;;;3.00;;
13805;SDS011;6974;53.606;9.872;2023-04-03T00:31:10;5.40;;;2.47;;
13805;SDS011;6974;53.606;9.872;2023-04-03T00:33:40;6.43;;;3.00;;
13805;SDS011;6974;53.606;9.872;2023-04-03T00:36:09;5.90;;;2.90;;
13805;SDS011;6974;53.606;9.872;2023-04-03T00:38:38;7.00;;;2.73;;
13805;SDS011;6974;53.606;9.872;2023-04-03T00:41:06;5.10;;;2.83;;
13805;SDS011;6974;53.606;9.872;2023-04-03T00:43:34;7.13;;;2.90;;
13805;SDS011;6974;53.606;9.872;2023-04-03T00:46:01;5.57;;;2.97;;
13805;SDS011;6974;53.606;9.872;2023-04-03T00:48:29;4.03;;;2.50;;
13805;SDS011;6974;53.606;9.872;2023-04-03T00:50:58;6.73;;;2.97;;
13805;SDS011;6974;53.606;9.872;2023-04-03T00:53:29;7.10;;;2.83;;
13805;SDS011;6974;53.606;9.872;2023-04-03T00:55:59;8.93;;;3.20;;
13805;SDS011;6974;53.606;9.872;2023-04-03T00:58:28;4.40;;;2.73;;
13805;SDS011;6974;53.606;9.872;2023-04-03T01:00:59;6.07;;;2.77;;
13805;SDS011;6974;53.606;9.872;2023-04-03T01:03:31;4.57;;;2.33;;
13805;SDS011;6974;53.606;9.872;2023-04-03T01:05:59;8.03;;;2.60;;
13805;SDS011;6974;53.606;9.872;2023-04-03T01:08:26;5.30;;;3.10;;
13805;SDS011;6974;53.606;9.872;2023-04-03T01:10:55;7.47;;;2.70;;
13805;SDS011;6974;53.606;9.872;2023-04-03T01:13:24;6.33;;;2.70;;
13805;SDS011;6974;53.606;9.872;2023-04-03T01:15:52;5.90;;;2.80;;
13805;SDS011;6974;53.606;9.872;2023-04-03T01:18:20;6.97;;;2.80;;
13805;SDS011;6974;53.606;9.872;2023-04-03T01:24:10;5.53;;;3.13;;
13805;SDS011;6974;53.606;9.872;2023-04-03T01:26:45;4.77;;;2.47;;
13805;SDS011;6974;53.606;9.872;2023-04-03T01:29:12;5.10;;;2.80;;
13805;SDS011;6974;53.606;9.872;2023-04-03T01:31:46;6.63;;;2.90;;
13805;SDS011;6974;53.606;9.872;2023-04-03T01:34:15;8.07;;;2.90;;
13805;SDS011;6974;53.606;9.872;2023-04-03T01:36:42;9.23;;;2.87;;
13805;SDS011;6974;53.606;9.872;2023-04-03T01:39:11;6.43;;;2.73;;
13805;SDS011;6974;53.606;9.872;2023-04-03T01:41:38;4.77;;;2.83;;
13805;SDS011;6974;53.606;9.872;2023-04-03T01:44:05;4.87;;;2.50;;
13805;SDS011;6974;53.606;9.872;2023-04-03T01:46:33;5.57;;;2.70;;
13805;SDS011;6974;53.606;9.872;2023-04-03T01:49:02;4.40;;;2.77;;
13805;SDS011;6974;53.606;9.872;2023-04-03T01:51:30;6.33;;;2.87;;
13805;SDS011;6974;53.606;9.872;2023-04-03T01:53:58;5.73;;;2.80;;
13805;SDS011;6974;53.606;9.872;2023-04-03T01:56:25;6.73;;;2.97;;
13805;SDS011;6974;53.606;9.872;2023-04-03T01:58:52;6.23;;;2.70;;
13805;SDS011;6974;53.606;9.872;2023-04-03T02:01:20;4.80;;;2.50;;
13805;SDS011;6974;53.606;9.872;2023-04-03T02:03:47;5.23;;;2.50;;
13805;SDS011;6974;53.606;9.872;2023-04-03T02:06:16;4.80;;;2.87;;
13805;SDS011;6974;53.606;9.872;2023-04-03T02:08:43;5.13;;;2.57;;
13805;SDS011;6974;53.606;9.872;2023-04-03T02:11:09;5.57;;;3.00;;
13805;SDS011;6974;53.606;9.872;2023-04-03T02:13:37;6.60;;;2.70;;
13805;SDS011;6974;53.606;9.872;2023-04-03T02:16:07;4.40;;;3.00;;
13805;SDS011;6974;53.606;9.872;2023-04-03T02:18:36;6.23;;;2.80;;
13805;SDS011;6974;53.606;9.872;2023-04-03T02:21:04;5.03;;;2.73;;
13805;SDS011;6974;53.606;9.872;2023-04-03T02:23:33;4.77;;;2.80;;
13805;SDS011;6974;53.606;9.872;2023-04-03T02:26:02;5.50;;;2.53;;
13805;SDS011;6974;53.606;9.872;2023-04-03T02:28:31;6.00;;;2.70;;
13805;SDS011;6974;53.606;9.872;2023-04-03T02:30:58;6.17;;;2.47;;
13805;SDS011;6974;53.606;9.872;2023-04-03T02:33:25;4.57;;;2.73;;
13805;SDS011;6974;53.606;9.872;2023-04-03T02:35:53;4.87;;;2.80;;
13805;SDS011;6974;53.606;9.872;2023-04-03T02:38:20;5.13;;;2.50;;
13805;SDS011;6974;53.606;9.872;2023-04-03T02:40:51;4.93;;;2.20;;
13805;SDS011;6974;53.606;9.872;2023-04-03T02:43:25;4.73;;;2.80;;
13805;SDS011;6974;53.606;9.872;2023-04-03T02:45:53;8.23;;;2.60;;
13805;SDS011;6974;53.606;9.872;2023-04-03T02:48:21;3.97;;;2.40;;
13805;SDS011;6974;53.606;9.872;2023-04-03T02:50:48;9.33;;;3.40;;
13805;SDS011;6974;53.606;9.872;2023-04-03T02:53:16;4.50;;;2.73;;
13805;SDS011;6974;53.606;9.872;2023-04-03T02:55:43;4.67;;;2.50;;
13805;SDS011;6974;53.606;9.872;2023-04-03T02:58:12;4.83;;;2.70;;
13805;SDS011;6974;53.606;9.872;2023-04-03T03:00:39;5.73;;;2.40;;
13805;SDS011;6974;53.606;9.872;2023-04-03T03:03:06;5.90;;;2.83;;
13805;SDS011;6974;53.606;9.872;2023-04-03T03:05:34;5.87;;;2.90;;
13805;SDS011;6974;53.606;9.872;2023-04-03T03:08:01;7.27;;;3.20;;
13805;SDS011;6974;53.606;9.872;2023-04-03T03:10:28;6.27;;;3.30;;
13805;SDS011;6974;53.606;9.872;2023-04-03T03:12:55;4.93;;;3.10;;
13805;SDS011;6974;53.606;9.872;2023-04-03T03:15:23;5.60;;;2.93;;
13805;SDS011;6974;53.606;9.872;2023-04-03T03:17:51;5.77;;;3.00;;
13805;SDS011;6974;53.606;9.872;2023-04-03T03:20:18;5.30;;;2.83;;
13805;SDS011;6974;53.606;9.872;2023-04-03T03:22:47;3.67;;;2.50;;
13805;SDS011;6974;53.606;9.872;2023-04-03T03:25:14;7.67;;;3.00;;
13805;SDS011;6974;53.606;9.872;2023-04-03T03:27:41;5.57;;;3.10;;
13805;SDS011;6974;53.606;9.872;2023-04-03T03:30:09;9.40;;;4.50;;
13805;SDS011;6974;53.606;9.872;2023-04-03T03:32:38;6.57;;;3.67;;
13805;SDS011;6974;53.606;9.872;2023-04-03T03:35:05;6.17;;;3.50;;
13805;SDS011;6974;53.606;9.872;2023-04-03T03:37:33;5.87;;;2.93;;
13805;SDS011;6974;53.606;9.872;2023-04-03T03:40:00;7.10;;;3.50;;
13805;SDS011;6974;53.606;9.872;2023-04-03T03:42:26;5.83;;;2.73;;
13805;SDS011;6974;53.606;9.872;2023-04-03T03:44:53;6.63;;;3.00;;
13805;SDS011;6974;53.606;9.872;2023-04-03T03:47:20;4.13;;;2.77;;
13805;SDS011;6974;53.606;9.872;2023-04-03T03:49:49;6.53;;;3.37;;
13805;SDS011;6974;53.606;9.872;2023-04-03T03:52:16;7.87;;;5.90;;
13805;SDS011;6974;53.606;9.872;2023-04-03T03:54:43;12.63;;;6.30;;
13805;SDS011;6974;53.606;9.872;2023-04-03T03:57:10;9.20;;;4.83;;
13805;SDS011;6974;53.606;9.872;2023-04-03T03:59:37;9.67;;;3.60;;
13805;SDS011;6974;53.606;9.872;2023-04-03T04:02:05;6.47;;;3.70;;
13805;SDS011;6974;53.606;9.872;2023-04-03T04:04:32;6.60;;;3.80;;
13805;SDS011;6974;53.606;9.872;2023-04-03T04:07:01;8.03;;;3.93;;
13805;SDS011;6974;53.606;9.872;2023-04-03T04:09:28;7.27;;;3.80;;
13805;SDS011;6974;53.606;9.872;2023-04-03T04:11:55;6.03;;;3.40;;
13805;SDS011;6974;53.606;9.872;2023-04-03T04:14:23;6.77;;;3.93;;
13805;SDS011;6974;53.606;9.872;2023-04-03T04:16:50;8.93;;;3.80;;
13805;SDS011;6974;53.606;9.872;2023-04-03T04:19:17;8.83;;;4.13;;
13805;SDS011;6974;53.606;9.872;2023-04-03T04:21:44;8.00;;;3.87;;
13805;SDS011;6974;53.606;9.872;2023-04-03T04:24:12;11.37;;;4.10;;
13805;SDS011;6974;53.606;9.872;2023-04-03T04:26:39;6.27;;;3.43;;
13805;SDS011;6974;53.606;9.872;2023-04-03T04:29:08;5.73;;;3.53;;
13805;SDS011;6974;53.606;9.872;2023-04-03T04:31:35;8.13;;;3.30;;
13805;SDS011;6974;53.606;9.872;2023-04-03T04:34:02;7.00;;;3.80;;
13805;SDS011;6974;53.606;9.872;2023-04-03T04:36:30;7.23;;;3.70;;
13805;SDS011;6974;53.606;9.872;2023-04-03T04:38:57;7.10;;;3.70;;
13805;SDS011;6974;53.606;9.872;2023-04-03T04:41:26;6.67;;;3.67;;
13805;SDS011;6974;53.606;9.872;2023-04-03T04:43:52;8.40;;;3.93;;
13805;SDS011;6974;53.606;9.872;2023-04-03T04:46:20;6.67;;;4.43;;
13805;SDS011;6974;53.606;9.872;2023-04-03T04:48:47;7.43;;;4.67;;
13805;SDS011;6974;53.606;9.872;2023-04-03T04:51:14;6.47;;;4.20;;
13805;SDS011;6974;53.606;9.872;2023-04-03T04:53:42;7.37;;;4.73;;
13805;SDS011;6974;53.606;9.872;2023-04-03T04:56:09;8.83;;;5.40;;
13805;SDS011;6974;53.606;9.872;2023-04-03T04:58:38;6.90;;;5.00;;
13805;SDS011;6974;53.606;9.872;2023-04-03T05:01:05;8.03;;;5.50;;
13805;SDS011;6974;53.606;9.872;2023-04-03T05:03:34;8.80;;;5.17;;
13805;SDS011;6974;53.606;9.872;2023-04-03T05:06:01;9.80;;;5.03;;
13805;SDS011;6974;53.606;9.872;2023-04-03T05:08:28;8.10;;;4.73;;
13805;SDS011;6974;53.606;9.872;2023-04-03T05:10:56;8.47;;;4.60;;
13805;SDS011;6974;53.606;9.872;2023-04-03T05:13:23;11.37;;;5.13;;
13805;SDS011;6974;53.606;9.872;2023-04-03T05:15:51;10.20;;;5.00;;
13805;SDS011;6974;53.606;9.872;2023-04-03T05:18:18;9.43;;;5.53;;
13805;SDS011;6974;53.606;9.872;2023-04-03T05:20:47;10.17;;;5.27;;
13805;SDS011;6974;53.606;9.872;2023-04-03T05:23:15;10.90;;;5.37;;
13805;SDS011;6974;53.606;9.872;2023-04-03T05:25:42;10.10;;;5.80;;
13805;SDS011;6974;53.606;9.872;2023-04-03T05:28:10;10.77;;;5.20;;
13805;SDS011;6974;53.606;9.872;2023-04-03T05:30:37;8.47;;;5.00;;
13805;SDS011;6974;53.606;9.872;2023-04-03T05:33:06;11.57;;;5.00;;
13805;SDS011;6974;53.606;9.872;2023-04-03T05:35:35;8.10;;;4.90;;
13805;SDS011;6974;53.606;9.872;2023-04-03T05:38:04;7.43;;;4.50;;
13805;SDS011;6974;53.606;9.872;2023-04-03T05:40:31;7.47;;;4.80;;
13805;SDS011;6974;53.606;9.872;2023-04-03T05:42:58;7.97;;;4.57;;
13805;SDS011;6974;53.606;9.872;2023-04-03T05:45:25;10.20;;;5.17;;
13805;SDS011;6974;53.606;9.872;2023-04-03T05:47:53;9.83;;;5.27;;
13805;SDS011;6974;53.606;9.872;2023-04-03T05:50:22;8.80;;;4.80;;
13805;SDS011;6974;53.606;9.872;2023-04-03T05:52:49;9.93;;;5.07;;
13805;SDS011;6974;53.606;9.872;2023-04-03T05:55:18;8.77;;;4.60;;
13805;SDS011;6974;53.606;9.872;2023-04-03T05:57:45;9.37;;;4.50;;
13805;SDS011;6974;53.606;9.872;2023-04-03T06:00:13;8.37;;;4.00;;
13805;SDS011;6974;53.606;9.872;2023-04-03T06:02:41;7.43;;;4.70;;
13805;SDS011;6974;53.606;9.872;2023-04-03T06:05:09;9.87;;;4.50;;
13805;SDS011;6974;53.606;9.872;2023-04-03T06:07:39;4.90;;;4.27;;
13805;SDS011;6974;53.606;9.872;2023-04-03T06:10:07;8.93;;;4.23;;
13805;SDS011;6974;53.606;9.872;2023-04-03T06:12:35;13.57;;;4.17;;
13805;SDS011;6974;53.606;9.872;2023-04-03T06:15:02;8.37;;;4.87;;
13805;SDS011;6974;53.606;9.872;2023-04-03T06:17:30;10.37;;;4.67;;
13805;SDS011;6974;53.606;9.872;2023-04-03T06:19:57;8.40;;;4.93;;
13805;SDS011;6974;53.606;9.872;2023-04-03T06:22:25;8.37;;;4.43;;
13805;SDS011;6974;53.606;9.872;2023-04-03T06:24:54;8.13;;;4.87;;
13805;SDS011;6974;53.606;9.872;2023-04-03T06:27:21;8.53;;;4.40;;
13805;SDS011;6974;53.606;9.872;2023-04-03T06:29:49;8.07;;;4.50;;
13805;SDS011;6974;53.606;9.872;2023-04-03T06:32:16;6.60;;;4.13;;
13805;SDS011;6974;53.606;9.872;2023-04-03T06:34:43;11.57;;;4.87;;
13805;SDS011;6974;53.606;9.872;2023-04-03T06:37:12;6.93;;;4.67;;
13805;SDS011;6974;53.606;9.872;2023-04-03T06:39:42;7.83;;;4.27;;
13805;SDS011;6974;53.606;9.872;2023-04-03T06:42:11;9.23;;;4.90;;
13805;SDS011;6974;53.606;9.872;2023-04-03T06:44:38;8.27;;;4.43;;
13805;SDS011;6974;53.606;9.872;2023-04-03T06:47:05;8.53;;;4.17;;
13805;SDS011;6974;53.606;9.872;2023-04-03T06:49:33;6.53;;;4.10;;
13805;SDS011;6974;53.606;9.872;2023-04-03T06:52:02;5.63;;;3.63;;
13805;SDS011;6974;53.606;9.872;2023-04-03T06:54:30;7.87;;;3.73;;
13805;SDS011;6974;53.606;9.872;2023-04-03T06:56:58;9.77;;;4.30;;
13805;SDS011;6974;53.606;9.872;2023-04-03T06:59:27;6.90;;;3.70;;
13805;SDS011;6974;53.606;9.872;2023-04-03T07:01:54;6.73;;;4.10;;
13805;SDS011;6974;53.606;9.872;2023-04-03T07:04:21;6.77;;;4.10;;
13805;SDS011;6974;53.606;9.872;2023-04-03T07:06:48;5.63;;;3.47;;
13805;SDS011;6974;53.606;9.872;2023-04-03T07:09:16;5.27;;;3.37;;
13805;SDS011;6974;53.606;9.872;2023-04-03T07:11:43;9.27;;;4.43;;
13805;SDS011;6974;53.606;9.872;2023-04-03T07:14:10;4.77;;;3.20;;
13805;SDS011;6974;53.606;9.872;2023-04-03T07:16:39;6.63;;;3.30;;
13805;SDS011;6974;53.606;9.872;2023-04-03T07:19:06;7.03;;;2.97;;
13805;SDS011;6974;53.606;9.872;2023-04-03T07:21:34;5.33;;;2.97;;
13805;SDS011;6974;53.606;9.872;2023-04-03T07:24:01;4.97;;;3.23;;
13805;SDS011;6974;53.606;9.872;2023-04-03T07:26:29;6.37;;;2.73;;
13805;SDS011;6974;53.606;9.872;2023-04-03T07:28:56;6.93;;;2.80;;
13805;SDS011;6974;53.606;9.872;2023-04-03T07:31:23;9.57;;;2.53;;
13805;SDS011;6974;53.606;9.872;2023-04-03T07:33:52;5.43;;;2.67;;
13805;SDS011;6974;53.606;9.872;2023-04-03T07:36:20;4.23;;;2.00;;
13805;SDS011;6974;53.606;9.872;2023-04-03T07:38:48;6.60;;;2.37;;
13805;SDS011;6974;53.606;9.872;2023-04-03T07:41:16;4.93;;;2.30;;
13805;SDS011;6974;53.606;9.872;2023-04-03T07:43:45;5.07;;;1.83;;
13805;SDS011;6974;53.606;9.872;2023-04-03T07:46:14;4.17;;;2.30;;
13805;SDS011;6974;53.606;9.872;2023-04-03T07:48:42;3.83;;;2.00;;
13805;SDS011;6974;53.606;9.872;2023-04-03T07:51:11;6.93;;;2.30;;
13805;SDS011;6974;53.606;9.872;2023-04-03T07:53:39;4.97;;;1.80;;
13805;SDS011;6974;53.606;9.872;2023-04-03T07:56:07;7.30;;;2.37;;
13805;SDS011;6974;53.606;9.872;2023-04-03T07:58:35;3.77;;;2.23;;
13805;SDS011;6974;53.606;9.872;2023-04-03T08:01:03;6.30;;;1.80;;
13805;SDS011;6974;53.606;9.872;2023-04-03T08:03:31;5.37;;;1.90;;
13805;SDS011;6974;53.606;9.872;2023-04-03T08:06:01;3.97;;;1.70;;
13805;SDS011;6974;53.606;9.872;2023-04-03T08:08:31;4.17;;;1.77;;
13805;SDS011;6974;53.606;9.872;2023-04-03T08:10:59;4.73;;;1.63;;
13805;SDS011;6974;53.606;9.872;2023-04-03T08:13:28;3.87;;;1.60;;
13805;SDS011;6974;53.606;9.872;2023-04-03T08:15:56;5.17;;;2.03;;
13805;SDS011;6974;53.606;9.872;2023-04-03T08:18:25;4.77;;;1.87;;
13805;SDS011;6974;53.606;9.872;2023-04-03T08:20:53;3.87;;;1.63;;
13805;SDS011;6974;53.606;9.872;2023-04-03T08:23:20;3.77;;;2.37;;
13805;SDS011;6974;53.606;9.872;2023-04-03T08:25:49;3.30;;;2.20;;
13805;SDS011;6974;53.606;9.872;2023-04-03T08:28:17;5.47;;;2.73;;
13805;SDS011;6974;53.606;9.872;2023-04-03T08:30:44;4.30;;;1.90;;
13805;SDS011;6974;53.606;9.872;2023-04-03T08:33:11;3.37;;;1.50;;
13805;SDS011;6974;53.606;9.872;2023-04-03T08:35:39;4.83;;;1.93;;
13805;SDS011;6974;53.606;9.872;2023-04-03T08:38:06;4.77;;;1.80;;
13805;SDS011;6974;53.606;9.872;2023-04-03T08:40:33;2.63;;;1.80;;
13805;SDS011;6974;53.606;9.872;2023-04-03T08:43:06;2.67;;;1.73;;
13805;SDS011;6974;53.606;9.872;2023-04-03T08:45:50;2.07;;;1.70;;
13805;SDS011;6974;53.606;9.872;2023-04-03T08:48:20;3.23;;;1.77;;
13805;SDS011;6974;53.606;9.872;2023-04-03T08:50:51;3.87;;;1.80;;
13805;SDS011;6974;53.606;9.872;2023-04-03T08:53:23;3.17;;;1.53;;
13805;SDS011;6974;53.606;9.872;2023-04-03T08:55:53;2.83;;;1.77;;
13805;SDS011;6974;53.606;9.872;2023-04-03T08:58:27;3.63;;;1.80;;
13805;SDS011;6974;53.606;9.872;2023-04-03T09:00:58;3.13;;;1.80;;
13805;SDS011;6974;53.606;9.872;2023-04-03T09:03:29;4.30;;;1.50;;
13805;SDS011;6974;53.606;9.872;2023-04-03T09:05:59;3.27;;;1.50;;
13805;SDS011;6974;53.606;9.872;2023-04-03T09:08:30;3.57;;;1.60;;
13805;SDS011;6974;53.606;9.872;2023-04-03T09:11:04;2.57;;;1.83;;
13805;SDS011;6974;53.606;9.872;2023-04-03T09:13:43;3.03;;;1.40;;
13805;SDS011;6974;53.606;9.872;2023-04-03T09:16:19;3.43;;;1.93;;
13805;SDS011;6974;53.606;9.872;2023-04-03T09:18:54;4.90;;;1.90;;
13805;SDS011;6974;53.606;9.872;2023-04-03T09:21:27;3.27;;;2.00;;
13805;SDS011;6974;53.606;9.872;2023-04-03T09:24:01;2.97;;;1.43;;
13805;SDS011;6974;53.606;9.872;2023-04-03T09:26:31;3.20;;;1.83;;
13805;SDS011;6974;53.606;9.872;2023-04-03T09:29:06;3.70;;;1.90;;
13805;SDS011;6974;53.606;9.872;2023-04-03T09:31:36;3.93;;;1.60;;
13805;SDS011;6974;53.606;9.872;2023-04-03T09:34:06;3.47;;;1.37;;
13805;SDS011;6974;53.606;9.872;2023-04-03T09:36:40;3.83;;;1.77;;
13805;SDS011;6974;53.606;9.872;2023-04-03T09:39:12;3.33;;;1.57;;
13805;SDS011;6974;53.606;9.872;2023-04-03T09:41:42;3.87;;;1.73;;
13805;SDS011;6974;53.606;9.872;2023-04-03T09:44:22;5.97;;;2.00;;
13805;SDS011;6974;53.606;9.872;2023-04-03T09:46:51;2.23;;;1.30;;
13805;SDS011;6974;53.606;9.872;2023-04-03T09:49:18;3.47;;;1.43;;
13805;SDS011;6974;53.606;9.872;2023-04-03T09:51:46;3.03;;;1.90;;
13805;SDS011;6974;53.606;9.872;2023-04-03T09:54:30;3.73;;;1.60;;
13805;SDS011;6974;53.606;9.872;2023-04-03T09:57:02;4.20;;;1.80;;
13805;SDS011;6974;53.606;9.872;2023-04-03T09:59:43;3.33;;;1.60;;
13805;SDS011;6974;53.606;9.872;2023-04-03T10:02:28;3.03;;;1.53;;
13805;SDS011;6974;53.606;9.872;2023-04-03T10:05:00;2.87;;;1.50;;
13805;SDS011;6974;53.606;9.872;2023-04-03T10:07:30;2.63;;;1.80;;
13805;SDS011;6974;53.606;9.872;2023-04-03T10:10:03;5.13;;;1.67;;
13805;SDS011;6974;53.606;9.872;2023-04-03T10:12:43;4.73;;;1.70;;
13805;SDS011;6974;53.606;9.872;2023-04-03T10:15:14;3.67;;;1.63;;
13805;SDS011;6974;53.606;9.872;2023-04-03T10:17:48;2.53;;;1.40;;
13805;SDS011;6974;53.606;9.872;2023-04-03T10:20:31;3.07;;;1.70;;
13805;SDS011;6974;53.606;9.872;2023-04-03T10:23:02;5.00;;;1.63;;
13805;SDS011;6974;53.606;9.872;2023-04-03T10:25:43;4.00;;;1.67;;
13805;SDS011;6974;53.606;9.872;2023-04-03T10:28:21;3.10;;;1.50;;
13805;SDS011;6974;53.606;9.872;2023-04-03T10:30:57;3.37;;;1.70;;
13805;SDS011;6974;53.606;9.872;2023-04-03T10:33:44;4.77;;;1.53;;
13805;SDS011;6974;53.606;9.872;2023-04-03T10:36:23;3.30;;;1.80;;
13805;SDS011;6974;53.606;9.872;2023-04-03T10:39:00;2.83;;;1.57;;
13805;SDS011;6974;53.606;9.872;2023-04-03T10:41:39;2.80;;;1.70;;
13805;SDS011;6974;53.606;9.872;2023-04-03T10:44:15;4.73;;;1.93;;
13805;SDS011;6974;53.606;9.872;2023-04-03T10:47:00;3.07;;;1.70;;
13805;SDS011;6974;53.606;9.872;2023-04-03T10:49:36;2.33;;;1.50;;
13805;SDS011;6974;53.606;9.872;2023-04-03T10:52:13;2.20;;;1.50;;
13805;SDS011;6974;53.606;9.872;2023-04-03T10:54:49;2.00;;;1.63;;
13805;SDS011;6974;53.606;9.872;2023-04-03T10:57:25;2.80;;;1.27;;
13805;SDS011;6974;53.606;9.872;2023-04-03T10:59:55;4.23;;;1.83;;
13805;SDS011;6974;53.606;9.872;2023-04-03T11:02:27;2.47;;;1.43;;
13805;SDS011;6974;53.606;9.872;2023-04-03T11:04:59;4.10;;;1.60;;
13805;SDS011;6974;53.606;9.872;2023-04-03T11:07:29;4.30;;;1.80;;
13805;SDS011;6974;53.606;9.872;2023-04-03T11:10:02;5.07;;;1.87;;
13805;SDS011;6974;53.606;9.872;2023-04-03T11:12:39;3.03;;;1.60;;
13805;SDS011;6974;53.606;9.872;2023-04-03T11:15:11;2.87;;;1.70;;
13805;SDS011;6974;53.606;9.872;2023-04-03T11:17:43;3.60;;;1.60;;
13805;SDS011;6974;53.606;9.872;2023-04-03T11:20:17;2.50;;;1.70;;
13805;SDS011;6974;53.606;9.872;2023-04-03T11:22:47;2.90;;;1.80;;
13805;SDS011;6974;53.606;9.872;2023-04-03T11:25:19;3.20;;;1.60;;
13805;SDS011;6974;53.606;9.872;2023-04-03T11:27:50;3.77;;;1.67;;
13805;SDS011;6974;53.606;9.872;2023-04-03T11:30:22;3.23;;;1.73;;
13805;SDS011;6974;53.606;9.872;2023-04-03T11:33:12;4.03;;;1.70;;
13805;SDS011;6974;53.606;9.872;2023-04-03T11:35:48;3.50;;;1.80;;
13805;SDS011;6974;53.606;9.872;2023-04-03T11:38:19;2.17;;;1.50;;
13805;SDS011;6974;53.606;9.872;2023-04-03T11:40:54;3.20;;;1.80;;
13805;SDS011;6974;53.606;9.872;2023-04-03T11:43:24;3.20;;;1.60;;
13805;SDS011;6974;53.606;9.872;2023-04-03T11:45:55;1.90;;;1.63;;
13805;SDS011;6974;53.606;9.872;2023-04-03T11:48:48;2.03;;;1.60;;
13805;SDS011;6974;53.606;9.872;2023-04-03T12:12:33;8.33;;;1.83;;
13805;SDS011;6974;53.606;9.872;2023-04-03T12:21:19;3.53;;;1.47;;
13805;SDS011;6974;53.606;9.872;2023-04-03T12:23:58;2.60;;;1.80;;
13805;SDS011;6974;53.606;9.872;2023-04-03T12:26:27;3.50;;;1.57;;
13805;SDS011;6974;53.606;9.872;2023-04-03T12:29:01;1.43;;;1.33;;
13805;SDS011;6974;53.606;9.872;2023-04-03T12:31:38;4.37;;;1.77;;
13805;SDS011;6974;53.606;9.872;2023-04-03T12:34:15;3.07;;;1.67;;
13805;SDS011;6974;53.606;9.872;2023-04-03T12:36:56;4.13;;;1.60;;
13805;SDS011;6974;53.606;9.872;2023-04-03T12:39:40;4.53;;;1.80;;
13805;SDS011;6974;53.606;9.872;2023-04-03T12:42:24;3.23;;;1.70;;
13805;SDS011;6974;53.606;9.872;2023-04-03T12:45:02;2.20;;;1.63;;
13805;SDS011;6974;53.606;9.872;2023-04-03T12:47:42;3.13;;;1.50;;
13805;SDS011;6974;53.606;9.872;2023-04-03T12:50:16;2.93;;;1.60;;
13805;SDS011;6974;53.606;9.872;2023-04-03T12:52:51;2.80;;;1.80;;
13805;SDS011;6974;53.606;9.872;2023-04-03T12:55:22;3.30;;;1.60;;
13805;SDS011;6974;53.606;9.872;2023-04-03T12:57:51;3.33;;;1.60;;
13805;SDS011;6974;53.606;9.872;2023-04-03T13:00:21;1.67;;;1.43;;
13805;SDS011;6974;53.606;9.872;2023-04-03T13:02:55;1.83;;;1.43;;
13805;SDS011;6974;53.606;9.872;2023-04-03T13:05:25;2.33;;;1.60;;
13805;SDS011;6974;53.606;9.872;2023-04-03T13:08:02;2.80;;;1.50;;
13805;SDS011;6974;53.606;9.872;2023-04-03T13:10:31;2.63;;;1.90;;
13805;SDS011;6974;53.606;9.872;2023-04-03T13:13:09;2.87;;;1.73;;
13805;SDS011;6974;53.606;9.872;2023-04-03T13:15:43;3.27;;;1.70;;
13805;SDS011;6974;53.606;9.872;2023-04-03T13:18:27;2.67;;;1.73;;
13805;SDS011;6974;53.606;9.872;2023-04-03T13:20:58;3.73;;;1.77;;
13805;SDS011;6974;53.606;9.872;2023-04-03T13:23:32;3.17;;;1.53;;
13805;SDS011;6974;53.606;9.872;2023-04-03T13:26:03;4.07;;;1.80;;
13805;SDS011;6974;53.606;9.872;2023-04-03T13:28:31;3.57;;;1.80;;
13805;SDS011;6974;53.606;9.872;2023-04-03T13:31:05;2.20;;;1.53;;
13805;SDS011;6974;53.606;9.872;2023-04-03T13:33:36;2.80;;;1.70;;
13805;SDS011;6974;53.606;9.872;2023-04-03T13:36:04;3.47;;;1.70;;
13805;SDS011;6974;53.606;9.872;2023-04-03T13:38:40;3.10;;;1.50;;
13805;SDS011;6974;53.606;9.872;2023-04-03T13:41:21;2.53;;;1.60;;
13805;SDS011;6974;53.606;9.872;2023-04-03T13:43:51;2.60;;;1.70;;
13805;SDS011;6974;53.606;9.872;2023-04-03T13:46:23;5.50;;;1.90;;
13805;SDS011;6974;53.606;9.872;2023-04-03T13:48:52;2.80;;;1.50;;
13805;SDS011;6974;53.606;9.872;2023-04-03T13:51:21;2.87;;;1.50;;
13805;SDS011;6974;53.606;9.872;2023-04-03T13:53:52;2.80;;;2.00;;
13805;SDS011;6974;53.606;9.872;2023-04-03T13:56:27;2.23;;;1.40;;
13805;SDS011;6974;53.606;9.872;2023-04-03T13:59:03;2.43;;;1.90;;
13805;SDS011;6974;53.606;9.872;2023-04-03T14:01:48;2.97;;;1.60;;
13805;SDS011;6974;53.606;9.872;2023-04-03T14:04:20;3.93;;;1.73;;
13805;SDS011;6974;53.606;9.872;2023-04-03T14:06:49;4.43;;;2.10;;
13805;SDS011;6974;53.606;9.872;2023-04-03T14:09:18;3.07;;;1.80;;
13805;SDS011;6974;53.606;9.872;2023-04-03T14:11:47;5.50;;;2.03;;
13805;SDS011;6974;53.606;9.872;2023-04-03T14:14:17;3.70;;;1.80;;
13805;SDS011;6974;53.606;9.872;2023-04-03T14:16:47;2.27;;;1.70;;
13805;SDS011;6974;53.606;9.872;2023-04-03T14:19:20;3.80;;;1.70;;
13805;SDS011;6974;53.606;9.872;2023-04-03T14:21:50;2.27;;;1.67;;
13805;SDS011;6974;53.606;9.872;2023-04-03T14:24:20;2.60;;;1.57;;
13805;SDS011;6974;53.606;9.872;2023-04-03T14:26:48;2.90;;;1.70;;
13805;SDS011;6974;53.606;9.872;2023-04-03T14:29:17;2.50;;;1.87;;
13805;SDS011;6974;53.606;9.872;2023-04-03T14:31:46;2.60;;;1.90;;
13805;SDS011;6974;53.606;9.872;2023-04-03T14:34:14;1.67;;;1.57;;
13805;SDS011;6974;53.606;9.872;2023-04-03T14:36:42;4.30;;;2.13;;
13805;SDS011;6974;53.606;9.872;2023-04-03T14:39:11;3.07;;;1.90;;
13805;SDS011;6974;53.606;9.872;2023-04-03T14:41:45;4.20;;;1.90;;
13805;SDS011;6974;53.606;9.872;2023-04-03T14:44:12;3.67;;;1.80;;
13805;SDS011;6974;53.606;9.872;2023-04-03T14:46:40;2.20;;;1.80;;
13805;SDS011;6974;53.606;9.872;2023-04-03T14:49:10;2.97;;;1.60;;
13805;SDS011;6974;53.606;9.872;2023-04-03T14:51:41;3.20;;;1.73;;
13805;SDS011;6974;53.606;9.872;2023-04-03T14:54:11;2.70;;;1.80;;
13805;SDS011;6974;53.606;9.872;2023-04-03T14:56:40;4.30;;;1.60;;
13805;SDS011;6974;53.606;9.872;2023-04-03T14:59:11;3.50;;;2.20;;
13805;SDS011;6974;53.606;9.872;2023-04-03T15:01:39;3.00;;;2.00;;
13805;SDS011;6974;53.606;9.872;2023-04-03T15:04:09;4.53;;;2.20;;
13805;SDS011;6974;53.606;9.872;2023-04-03T15:06:38;2.57;;;1.70;;
13805;SDS011;6974;53.606;9.872;2023-04-03T15:09:05;1.80;;;1.50;;
13805;SDS011;6974;53.606;9.872;2023-04-03T15:11:41;3.47;;;1.90;;
13805;SDS011;6974;53.606;9.872;2023-04-03T15:14:08;4.87;;;1.90;;
13805;SDS011;6974;53.606;9.872;2023-04-03T15:16:37;3.40;;;2.00;;
13805;SDS011;6974;53.606;9.872;2023-04-03T15:19:05;3.23;;;1.90;;
13805;SDS011;6974;53.606;9.872;2023-04-03T15:21:33;3.40;;;1.90;;
13805;SDS011;6974;53.606;9.872;2023-04-03T15:24:00;4.00;;;1.93;;
13805;SDS011;6974;53.606;9.872;2023-04-03T15:26:27;2.90;;;1.77;;
13805;SDS011;6974;53.606;9.872;2023-04-03T15:28:55;4.70;;;2.20;;
13805;SDS011;6974;53.606;9.872;2023-04-03T15:31:24;3.10;;;2.10;;
13805;SDS011;6974;53.606;9.872;2023-04-03T15:33:51;3.13;;;2.10;;
13805;SDS011;6974;53.606;9.872;2023-04-03T15:36:19;5.07;;;2.23;;
13805;SDS011;6974;53.606;9.872;2023-04-03T15:38:46;3.50;;;2.20;;
13805;SDS011;6974;53.606;9.872;2023-04-03T15:41:13;2.07;;;1.73;;
13805;SDS011;6974;53.606;9.872;2023-04-03T15:43:40;2.90;;;1.73;;
13805;SDS011;6974;53.606;9.872;2023-04-03T15:46:07;3.37;;;1.80;;
13805;SDS011;6974;53.606;9.872;2023-04-03T15:48:36;3.13;;;1.90;;